createdAt,value
2018-01-08T00:00:24.128Z,96.10
2018-01-08T00:02:51.664Z,96.10
2018-01-08T00:05:19.192Z,96.10
2018-01-08T00:07:47.542Z,96.50
2018-01-08T00:10:19.936Z,96.40
2018-01-08T00:12:47.507Z,96.80
2018-01-08T00:15:15.037Z,97.10
2018-01-08T00:17:42.590Z,97.00
2018-01-08T00:20:10.400Z,97.00
2018-01-08T00:22:37.938Z,97.20
2018-01-08T00:25:05.491Z,97.30
2018-01-08T00:27:33.830Z,97.40
2018-01-08T00:30:01.363Z,97.40
2018-01-08T00:32:29.788Z,97.50
2018-01-08T00:34:57.371Z,97.50
2018-01-08T00:37:24.907Z,97.50
2018-01-08T00:39:52.430Z,97.40
2018-01-08T00:42:20.031Z,97.50
2018-01-08T00:44:48.327Z,97.50
2018-01-08T00:47:15.875Z,97.50
2018-01-08T00:49:43.479Z,97.70
2018-01-08T00:52:11.012Z,98.00
2018-01-08T00:54:38.555Z,97.90
2018-01-08T00:57:06.318Z,97.70
2018-01-08T00:59:33.855Z,97.70
2018-01-08T01:02:02.155Z,97.90
2018-01-08T01:04:29.751Z,97.90
2018-01-08T01:06:57.292Z,98.00
2018-01-08T01:09:25.595Z,98.20
2018-01-08T01:11:53.185Z,98.20
2018-01-08T01:14:20.751Z,98.20
2018-01-08T01:16:48.288Z,98.30
2018-01-08T01:19:16.810Z,98.30
2018-01-08T01:21:44.341Z,98.30
2018-01-08T01:24:12.644Z,98.70
2018-01-08T01:26:40.339Z,98.70
2018-01-08T01:29:07.874Z,98.80
2018-01-08T01:31:36.174Z,99.20
2018-01-08T01:34:04.527Z,99.40
2018-01-08T01:36:32.855Z,99.50
2018-01-08T01:39:00.395Z,99.50
2018-01-08T01:41:27.978Z,99.60
2018-01-08T01:43:56.279Z,99.90
2018-01-08T01:46:24.575Z,99.90
2018-01-08T01:48:52.151Z,99.90
2018-01-08T01:51:19.687Z,99.90
2018-01-08T01:53:47.235Z,99.90
2018-01-08T01:56:14.824Z,99.90
2018-01-08T01:58:43.138Z,99.90
2018-01-08T02:01:11.434Z,99.90
2018-01-08T02:03:39.764Z,99.90
2018-01-08T02:06:07.306Z,99.90
2018-01-08T02:08:34.842Z,99.90
2018-01-08T02:11:03.288Z,99.90
2018-01-08T02:13:30.816Z,99.90
2018-01-08T02:15:59.110Z,99.90
2018-01-08T02:18:27.452Z,99.90
2018-01-08T02:20:55.033Z,99.90
2018-01-08T02:23:22.571Z,99.90
2018-01-08T02:25:50.364Z,99.90
2018-01-08T02:28:17.900Z,99.90
2018-01-08T02:30:45.439Z,99.90
2018-01-08T02:33:13.024Z,99.90
2018-01-08T02:35:41.323Z,99.90
2018-01-08T02:38:09.630Z,99.90
2018-01-08T02:40:37.323Z,99.90
2018-01-08T02:43:04.860Z,99.90
2018-01-08T02:45:33.166Z,99.90
2018-01-08T02:48:00.751Z,99.90
2018-01-08T02:50:28.302Z,99.90
2018-01-08T02:52:55.864Z,99.90
2018-01-08T02:55:23.450Z,99.90
2018-01-08T02:57:50.992Z,99.90
2018-01-08T03:00:20.207Z,99.90
2018-01-08T03:02:48.547Z,99.90
2018-01-08T03:05:16.086Z,99.90
2018-01-08T03:07:43.623Z,99.90
2018-01-08T03:10:11.963Z,99.90
2018-01-08T03:12:45.499Z,99.90
2018-01-08T03:15:13.251Z,99.90
2018-01-08T03:17:40.777Z,99.90
2018-01-08T03:20:09.101Z,99.90
2018-01-08T03:22:36.675Z,99.90
2018-01-08T03:25:04.210Z,99.90
2018-01-08T03:27:32.530Z,99.90
2018-01-08T03:30:00.127Z,99.90
2018-01-08T03:32:27.668Z,99.90
2018-01-08T03:34:55.212Z,99.90
2018-01-08T03:37:23.559Z,99.90
2018-01-08T03:39:51.097Z,99.90
2018-01-08T03:42:18.668Z,99.90
2018-01-08T03:44:46.240Z,99.70
2018-01-08T03:47:13.791Z,99.60
2018-01-08T03:49:42.082Z,98.60
2018-01-08T03:52:10.662Z,98.20
2018-01-08T03:54:38.202Z,98.20
2018-01-08T03:57:05.733Z,98.30
2018-01-08T03:59:33.431Z,97.80
2018-01-08T04:02:01.088Z,97.40
2018-01-08T04:04:28.618Z,96.90
2018-01-08T04:06:57.015Z,95.60
2018-01-08T04:09:24.520Z,95.60
2018-01-08T04:11:52.064Z,95.70
2018-01-08T04:14:20.435Z,95.70
2018-01-08T04:16:47.970Z,95.70
2018-01-08T04:19:15.502Z,95.60
2018-01-08T04:21:43.854Z,95.80
2018-01-08T04:24:12.144Z,95.80
2018-01-08T04:26:39.773Z,95.80
2018-01-08T04:29:07.563Z,95.90
2018-01-08T04:31:35.092Z,95.90
2018-01-08T04:34:03.400Z,96.30
2018-01-08T04:36:30.986Z,96.20
2018-01-08T04:38:58.517Z,96.80
2018-01-08T04:41:26.823Z,98.00
2018-01-08T04:43:54.427Z,98.00
2018-01-08T04:46:21.954Z,98.50
2018-01-08T04:48:50.248Z,99.30
2018-01-08T04:51:18.578Z,99.50
2018-01-08T04:53:46.115Z,99.50
2018-01-08T04:56:13.647Z,99.70
2018-01-08T04:58:41.220Z,99.60
2018-01-08T05:01:08.769Z,99.50
2018-01-08T05:03:36.303Z,99.30
2018-01-08T05:06:03.887Z,99.30
2018-01-08T05:08:31.430Z,99.30
2018-01-08T05:10:59.722Z,98.80
2018-01-08T05:13:28.054Z,98.70
2018-01-08T05:15:55.583Z,98.70
2018-01-08T05:18:23.124Z,98.60
2018-01-08T05:20:50.705Z,98.60
2018-01-08T05:23:18.268Z,98.60
2018-01-08T05:25:45.811Z,98.50
2018-01-08T05:28:13.387Z,98.40
2018-01-08T05:30:40.919Z,98.60
2018-01-08T05:33:08.451Z,98.80
2018-01-08T05:35:36.039Z,98.60
2018-01-08T05:38:04.333Z,98.60
2018-01-08T05:40:32.635Z,98.50
2018-01-08T05:43:00.625Z,98.50
2018-01-08T05:45:28.167Z,98.60
2018-01-08T05:47:56.464Z,98.80
2018-01-08T05:50:24.803Z,98.80
2018-01-08T05:52:52.337Z,98.80
2018-01-08T05:55:19.906Z,98.80
2018-01-08T05:57:47.495Z,98.90
2018-01-08T06:00:15.031Z,98.80
2018-01-08T06:02:43.337Z,98.50
2018-01-08T06:05:10.999Z,98.50
2018-01-08T06:07:39.409Z,98.70
2018-01-08T06:10:06.943Z,98.70
2018-01-08T06:12:34.535Z,98.60
2018-01-08T06:15:02.823Z,98.30
2018-01-08T06:17:31.114Z,98.50
2018-01-08T06:19:59.638Z,99.20
2018-01-08T06:22:27.171Z,99.20
2018-01-08T06:24:55.473Z,98.80
2018-01-08T06:27:23.258Z,98.80
2018-01-08T06:29:50.799Z,97.70
2018-01-08T06:32:19.115Z,96.20
2018-01-08T06:34:46.687Z,96.20
2018-01-08T06:37:14.218Z,96.90
2018-01-08T06:39:41.746Z,96.50
2018-01-08T06:42:09.336Z,94.70
2018-01-08T06:44:36.943Z,95.10
2018-01-08T06:47:05.248Z,94.70
2018-01-08T06:49:33.611Z,94.20
2018-01-08T06:52:01.147Z,94.20
2018-01-08T06:54:28.680Z,94.20
2018-01-08T06:56:56.279Z,94.60
2018-01-08T06:59:23.941Z,94.60
2018-01-08T07:01:51.466Z,94.90
2018-01-08T07:04:19.037Z,94.80
2018-01-08T07:06:46.567Z,95.10
2018-01-08T07:09:14.095Z,95.30
2018-01-08T07:11:42.619Z,95.70
2018-01-08T07:14:10.156Z,95.70
2018-01-08T07:16:37.715Z,95.70
2018-01-08T07:19:05.296Z,95.80
2018-01-08T07:21:33.611Z,95.90
2018-01-08T07:24:01.153Z,95.90
2018-01-08T07:26:28.725Z,95.70
2018-01-08T07:28:56.264Z,95.70
2018-01-08T07:31:23.905Z,95.50
2018-01-08T07:33:51.580Z,95.10
2018-01-08T07:36:19.163Z,94.90
2018-01-08T07:38:46.703Z,94.50
2018-01-08T07:41:15.040Z,94.60
2018-01-08T07:43:42.584Z,94.60
2018-01-08T07:46:10.119Z,94.60
2018-01-08T07:48:39.155Z,94.90
2018-01-08T07:51:06.690Z,94.90
2018-01-08T07:53:34.993Z,95.10
2018-01-08T07:56:02.648Z,95.00
2018-01-08T07:58:30.958Z,95.20
2018-01-08T08:00:59.270Z,95.30
2018-01-08T08:03:26.860Z,95.30
2018-01-08T08:05:54.387Z,95.30
2018-01-08T08:08:22.688Z,95.50
2018-01-08T08:10:50.364Z,95.50
2018-01-08T08:13:17.904Z,95.70
2018-01-08T08:15:45.449Z,95.60
2018-01-08T08:18:13.031Z,95.20
2018-01-08T08:20:40.606Z,94.40
2018-01-08T08:23:08.174Z,94.20
2018-01-08T08:25:35.778Z,93.80
2018-01-08T08:28:04.095Z,93.80
2018-01-08T08:30:31.636Z,93.80
2018-01-08T08:33:00.005Z,93.70
2018-01-08T08:35:28.427Z,93.70
2018-01-08T08:37:55.962Z,93.70
2018-01-08T08:40:23.699Z,93.40
2018-01-08T08:42:51.234Z,92.70
2018-01-08T08:45:20.142Z,92.60
2018-01-08T08:47:48.655Z,92.80
2018-01-08T08:50:16.212Z,92.80
2018-01-08T08:52:43.742Z,93.00
2018-01-08T08:55:11.315Z,93.20
2018-01-08T08:57:38.849Z,93.30
2018-01-08T09:00:06.388Z,93.00
2018-01-08T09:02:34.766Z,93.00
2018-01-08T09:05:03.068Z,92.80
2018-01-08T09:07:31.381Z,92.60
2018-01-08T09:09:58.963Z,92.60
2018-01-08T09:12:26.509Z,92.10
2018-01-08T09:14:54.044Z,91.80
2018-01-08T09:17:21.635Z,91.30
2018-01-08T09:19:49.927Z,91.00
2018-01-08T09:22:18.273Z,90.00
2018-01-08T09:24:45.876Z,90.00
2018-01-08T09:27:14.180Z,87.20
2018-01-08T09:29:42.477Z,84.30
2018-01-08T09:32:10.071Z,84.20
2018-01-08T09:34:37.602Z,82.70
2018-01-08T09:37:05.134Z,80.70
2018-01-08T09:39:32.708Z,78.20
2018-01-08T09:42:00.230Z,77.30
2018-01-08T09:44:27.774Z,74.40
2018-01-08T09:46:55.357Z,71.80
2018-01-08T09:49:23.663Z,69.70
2018-01-08T09:51:51.190Z,69.50
2018-01-08T09:54:18.780Z,68.60
2018-01-08T09:56:47.075Z,65.30
2018-01-08T09:59:15.375Z,65.10
2018-01-08T10:01:42.959Z,64.40
2018-01-08T10:04:22.570Z,63.40
2018-01-08T10:07:01.941Z,60.40
2018-01-08T10:09:41.984Z,59.50
2018-01-08T10:12:21.699Z,59.40
2018-01-08T10:15:01.082Z,59.10
2018-01-08T10:17:40.445Z,57.80
2018-01-08T10:20:07.975Z,58.20
2018-01-08T10:22:35.510Z,56.60
2018-01-08T10:25:03.859Z,55.80
2018-01-08T10:27:31.395Z,55.80
2018-01-08T10:29:59.064Z,54.50
2018-01-08T10:32:26.622Z,53.20
2018-01-08T10:34:54.176Z,51.80
2018-01-08T10:37:22.475Z,51.30
2018-01-08T10:39:50.094Z,51.30
2018-01-08T10:42:23.373Z,50.40
2018-01-08T10:44:56.675Z,50.60
2018-01-08T10:47:29.769Z,50.30
2018-01-08T10:50:03.054Z,49.90
2018-01-08T10:52:31.402Z,48.40
2018-01-08T10:55:00.727Z,47.80
2018-01-08T10:57:28.391Z,47.70
2018-01-08T10:59:56.018Z,48.20
2018-01-08T11:05:29.371Z,46.00
2018-01-08T11:07:56.991Z,45.80
2018-01-08T11:10:25.318Z,48.40
2018-01-08T11:12:52.855Z,48.30
2018-01-08T11:15:21.230Z,46.60
2018-01-08T11:17:48.781Z,46.60
2018-01-08T11:20:16.324Z,47.20
2018-01-08T11:22:43.904Z,43.80
2018-01-08T11:25:11.427Z,43.20
2018-01-08T11:27:38.966Z,43.50
2018-01-08T11:30:06.583Z,43.00
2018-01-08T11:32:34.885Z,42.30
2018-01-08T11:35:03.309Z,42.30
2018-01-08T11:37:30.881Z,42.20
2018-01-08T11:39:58.411Z,42.60
2018-01-08T11:42:26.768Z,43.50
2018-01-08T11:44:54.351Z,43.50
2018-01-08T11:47:23.392Z,39.90
2018-01-08T11:49:50.973Z,39.90
2018-01-08T11:52:18.579Z,38.90
2018-01-08T11:54:46.102Z,39.20
2018-01-08T11:57:14.390Z,40.00
2018-01-08T11:59:42.814Z,39.00
2018-01-08T12:02:10.343Z,38.90
2018-01-08T12:04:38.639Z,39.40
2018-01-08T12:07:06.979Z,39.20
2018-01-08T12:09:34.519Z,39.20
2018-01-08T12:12:02.038Z,38.40
2018-01-08T12:14:29.603Z,39.40
2018-01-08T12:16:57.879Z,39.00
2018-01-08T12:19:25.400Z,38.60
2018-01-08T12:21:53.787Z,38.60
2018-01-08T12:24:22.087Z,39.30
2018-01-08T12:26:49.610Z,39.30
2018-01-08T12:29:17.194Z,40.00
2018-01-08T12:31:44.724Z,39.90
2018-01-08T12:34:12.263Z,39.40
2018-01-08T12:36:40.772Z,39.40
2018-01-08T12:39:08.299Z,39.30
2018-01-08T12:41:35.860Z,39.50
2018-01-08T12:44:03.420Z,40.30
2018-01-08T12:46:30.949Z,40.50
2018-01-08T12:48:58.475Z,39.70
2018-01-08T12:51:27.547Z,39.30
2018-01-08T12:53:55.189Z,39.20
2018-01-08T12:56:23.479Z,39.40
2018-01-08T12:58:51.810Z,39.80
2018-01-08T13:01:19.347Z,39.80
2018-01-08T13:03:46.878Z,39.90
2018-01-08T13:06:15.211Z,40.60
2018-01-08T13:08:42.759Z,40.60
2018-01-08T13:11:11.047Z,39.40
2018-01-08T13:13:38.975Z,39.30
2018-01-08T13:16:06.511Z,39.30
2018-01-08T13:18:34.072Z,39.70
2018-01-08T13:21:02.410Z,40.00
2018-01-08T13:23:29.941Z,39.90
2018-01-08T13:25:57.475Z,40.10
2018-01-08T13:28:25.056Z,39.80
2018-01-08T13:30:52.586Z,40.00
2018-01-08T13:33:20.125Z,40.30
2018-01-08T13:35:47.807Z,40.40
2018-01-08T13:38:15.347Z,39.90
2018-01-08T13:40:43.659Z,40.30
2018-01-08T13:43:11.256Z,40.10
2018-01-08T13:45:39.090Z,39.80
2018-01-08T13:48:07.387Z,40.00
2018-01-08T13:50:35.723Z,40.30
2018-01-08T13:53:03.247Z,40.40
2018-01-08T13:55:31.537Z,40.90
2018-01-08T13:57:59.127Z,40.80
2018-01-08T14:00:26.684Z,40.60
2018-01-08T14:02:58.639Z,40.50
2018-01-08T14:05:26.934Z,41.60
2018-01-08T14:07:55.235Z,41.50
2018-01-08T14:10:22.872Z,41.30
2018-01-08T14:12:51.191Z,41.30
2018-01-08T14:15:19.495Z,41.40
2018-01-08T14:17:47.059Z,41.40
2018-01-08T14:20:14.611Z,41.30
2018-01-08T14:22:43.034Z,41.60
2018-01-08T14:25:10.740Z,41.60
2018-01-08T14:27:38.329Z,42.00
2018-01-08T14:30:06.655Z,42.50
2018-01-08T14:32:35.097Z,42.70
2018-01-08T14:35:02.621Z,42.60
2018-01-08T14:37:30.155Z,43.30
2018-01-08T14:39:57.754Z,43.40
2018-01-08T14:42:26.055Z,44.00
2018-01-08T14:44:53.624Z,44.00
2018-01-08T14:47:21.219Z,43.80
2018-01-08T14:49:48.820Z,43.90
2018-01-08T14:52:16.351Z,44.40
2018-01-08T14:54:44.005Z,44.60
2018-01-08T14:57:11.510Z,45.00
2018-01-08T14:59:39.051Z,45.40
2018-01-08T15:02:06.632Z,45.90
2018-01-08T15:04:34.158Z,46.30
2018-01-08T15:07:01.707Z,46.80
2018-01-08T15:09:29.358Z,47.30
2018-01-08T15:11:56.882Z,47.80
2018-01-08T15:14:25.169Z,48.40
2018-01-08T15:16:52.745Z,48.50
2018-01-08T15:19:21.066Z,49.20
2018-01-08T15:21:48.616Z,49.10
2018-01-08T15:24:17.185Z,50.00
2018-01-08T15:26:44.713Z,50.00
2018-01-08T15:29:12.263Z,49.80
2018-01-08T15:34:23.595Z,50.60
2018-01-08T15:36:51.129Z,51.00
2018-01-08T15:39:18.679Z,51.40
2018-01-08T15:41:46.260Z,51.90
2018-01-08T15:44:13.795Z,51.30
2018-01-08T15:46:41.349Z,51.50
2018-01-08T15:49:08.933Z,51.60
2018-01-08T15:51:36.463Z,51.40
2018-01-08T15:54:04.763Z,51.70
2018-01-08T15:56:33.198Z,52.30
2018-01-08T15:59:00.775Z,52.20
2018-01-08T16:01:28.307Z,52.70
2018-01-08T16:03:55.895Z,53.20
2018-01-08T16:06:23.420Z,53.50
2018-01-08T16:08:50.949Z,54.10
2018-01-08T16:11:18.570Z,54.40
2018-01-08T16:13:46.890Z,55.20
2018-01-08T16:16:14.420Z,54.50
2018-01-08T16:18:42.157Z,55.10
2018-01-08T16:21:09.682Z,55.30
2018-01-08T16:23:37.974Z,55.30
2018-01-08T16:26:06.511Z,56.30
2018-01-08T16:28:35.038Z,55.60
2018-01-08T16:31:02.595Z,55.60
2018-01-08T16:33:30.159Z,55.90
2018-01-08T16:35:57.689Z,55.40
2018-01-08T16:38:25.234Z,56.10
2018-01-08T16:40:53.590Z,55.80
2018-01-08T16:43:21.127Z,55.70
2018-01-08T16:45:48.663Z,55.80
2018-01-08T16:48:16.239Z,55.80
2018-01-08T16:50:44.559Z,58.90
2018-01-08T16:53:12.106Z,58.80
2018-01-08T16:55:40.447Z,57.80
2018-01-08T16:58:08.012Z,57.80
2018-01-08T17:00:35.535Z,55.20
2018-01-08T17:03:03.751Z,55.00
2018-01-08T17:05:31.339Z,54.70
2018-01-08T17:07:58.943Z,54.10
2018-01-08T17:10:26.568Z,53.80
2018-01-08T17:12:54.098Z,53.40
2018-01-08T17:15:21.663Z,53.60
2018-01-08T17:17:49.260Z,54.10
2018-01-08T17:20:16.790Z,53.00
2018-01-08T17:22:44.322Z,53.10
2018-01-08T17:25:12.092Z,52.70
2018-01-08T17:27:39.616Z,52.50
2018-01-08T17:30:07.142Z,55.60
2018-01-08T17:32:34.714Z,57.70
2018-01-08T17:35:02.286Z,58.60
2018-01-08T17:37:29.813Z,55.40
2018-01-08T17:39:58.374Z,53.40
2018-01-08T17:42:25.899Z,53.30
2018-01-08T17:44:53.438Z,53.20
2018-01-08T17:47:21.171Z,53.10
2018-01-08T17:49:48.699Z,52.90
2018-01-08T17:52:16.996Z,52.20
2018-01-08T17:54:45.356Z,52.40
2018-01-08T17:57:12.888Z,52.40
2018-01-08T17:59:40.461Z,52.50
2018-01-08T18:02:08.027Z,52.50
2018-01-08T18:04:35.556Z,52.70
2018-01-08T18:07:03.868Z,53.60
2018-01-08T18:09:32.314Z,53.00
2018-01-08T18:11:59.851Z,53.40
2018-01-08T18:14:27.379Z,52.60
2018-01-08T18:16:55.720Z,52.50
2018-01-08T18:19:23.256Z,52.20
2018-01-08T18:21:50.780Z,52.30
2018-01-08T18:24:18.355Z,52.30
2018-01-08T18:26:45.884Z,52.20
2018-01-08T18:29:13.495Z,52.00
2018-01-08T18:31:41.248Z,52.10
2018-01-08T18:34:08.783Z,51.90
2018-01-08T18:36:37.079Z,51.30
2018-01-08T18:39:04.767Z,51.20
2018-01-08T18:41:32.299Z,51.30
2018-01-08T18:43:59.839Z,51.20
2018-01-08T18:46:27.438Z,51.20
2018-01-08T18:48:54.972Z,51.10
2018-01-08T18:51:22.506Z,50.80
2018-01-08T18:53:50.087Z,51.00
2018-01-08T18:56:17.639Z,51.00
2018-01-08T18:58:45.992Z,51.10
2018-01-08T19:01:13.567Z,51.10
2018-01-08T19:03:41.172Z,51.10
2018-01-08T19:06:09.473Z,51.10
2018-01-08T19:08:37.166Z,51.00
2018-01-08T19:11:04.707Z,51.20
2018-01-08T19:13:33.006Z,51.10
2018-01-08T19:16:00.575Z,51.10
2018-01-08T19:18:28.107Z,51.20
2018-01-08T19:20:55.644Z,51.40
2018-01-08T19:23:23.216Z,51.10
2018-01-08T19:25:50.771Z,51.20
2018-01-08T19:28:18.324Z,51.40
2018-01-08T19:30:46.855Z,51.10
2018-01-08T19:33:14.754Z,51.00
2018-01-08T19:35:42.298Z,51.00
2018-01-08T19:38:09.891Z,51.50
2018-01-08T19:40:37.419Z,51.50
2018-01-08T19:43:04.959Z,51.20
2018-01-08T19:45:33.307Z,51.20
2018-01-08T19:48:01.680Z,50.40
2018-01-08T19:50:29.219Z,50.20
2018-01-08T19:52:57.571Z,50.00
2018-01-08T19:55:25.115Z,50.00
2018-01-08T19:57:52.643Z,49.80
2018-01-08T20:00:20.988Z,49.40
2018-01-08T20:02:48.515Z,49.50
2018-01-08T20:05:16.815Z,51.80
2018-01-08T20:07:44.416Z,51.60
2018-01-08T20:10:11.948Z,50.60
2018-01-08T20:12:40.242Z,49.50
2018-01-08T20:15:08.594Z,49.30
2018-01-08T20:17:36.892Z,48.60
2018-01-08T20:20:05.204Z,48.60
2018-01-08T20:22:33.736Z,48.70
2018-01-08T20:25:01.272Z,48.40
2018-01-08T20:27:28.819Z,48.40
2018-01-08T20:29:57.915Z,48.40
2018-01-08T20:32:27.001Z,48.30
2018-01-08T20:34:54.596Z,48.30
2018-01-08T20:37:22.182Z,48.30
2018-01-08T20:39:50.475Z,48.50
2018-01-08T20:42:18.778Z,48.10
2018-01-08T20:44:47.131Z,48.00
2018-01-08T20:47:14.717Z,48.00
2018-01-08T20:49:43.026Z,48.70
2018-01-08T20:52:11.367Z,48.00
2018-01-08T20:54:38.909Z,48.00
2018-01-08T20:57:07.257Z,47.40
2018-01-08T20:59:34.896Z,47.30
2018-01-08T21:02:02.439Z,47.50
2018-01-08T21:04:29.978Z,47.40
2018-01-08T21:06:58.333Z,47.70
2018-01-08T21:09:25.868Z,47.60
2018-01-08T21:11:53.482Z,47.50
2018-01-08T21:14:21.164Z,47.60
2018-01-08T21:16:48.691Z,47.60
2018-01-08T21:19:16.243Z,47.50
2018-01-08T21:21:43.832Z,47.70
2018-01-08T21:24:11.375Z,51.90
2018-01-08T21:26:39.699Z,50.30
2018-01-08T21:29:07.288Z,50.30
2018-01-08T21:31:34.824Z,49.20
2018-01-08T21:34:02.363Z,48.20
2018-01-08T21:36:29.983Z,46.70
2018-01-08T21:38:57.520Z,47.10
2018-01-08T21:41:25.819Z,45.60
2018-01-08T21:43:53.416Z,45.60
2018-01-08T21:46:20.954Z,45.30
2018-01-08T21:48:49.251Z,45.20
2018-01-08T21:51:16.818Z,45.20
2018-01-08T21:53:44.368Z,44.80
2018-01-08T21:56:11.919Z,44.20
2018-01-08T21:58:39.495Z,44.30
2018-01-08T22:01:07.042Z,44.30
2018-01-08T22:03:34.568Z,44.10
2018-01-08T22:06:02.910Z,43.70
2018-01-08T22:08:30.550Z,43.70
2018-01-08T22:10:58.138Z,44.20
2018-01-08T22:13:25.671Z,42.80
2018-01-08T22:15:54.354Z,42.20
2018-01-08T22:18:21.919Z,42.20
2018-01-08T22:20:49.451Z,41.90
2018-01-08T22:23:16.975Z,42.30
2018-01-08T22:25:45.315Z,41.50
2018-01-08T22:28:12.840Z,41.40
2018-01-08T22:30:41.133Z,41.70
2018-01-08T22:33:09.461Z,42.40
2018-01-08T22:35:36.991Z,41.80
2018-01-08T22:38:05.292Z,42.30
2018-01-08T22:40:32.890Z,41.70
2018-01-08T22:43:00.419Z,42.00
2018-01-08T22:45:28.756Z,42.80
2018-01-08T22:47:56.296Z,42.60
2018-01-08T22:50:23.839Z,43.30
2018-01-08T22:52:52.195Z,43.70
2018-01-08T22:55:19.722Z,43.60
2018-01-08T22:57:47.254Z,43.70
2018-01-08T23:00:14.871Z,43.80
2018-01-08T23:02:42.402Z,43.50
2018-01-08T23:05:10.013Z,43.20
2018-01-08T23:07:37.585Z,42.60
2018-01-08T23:10:05.146Z,42.40
2018-01-08T23:12:32.694Z,42.30
2018-01-08T23:15:01.048Z,42.10
2018-01-08T23:17:28.578Z,42.00
2018-01-08T23:19:56.119Z,41.50
2018-01-08T23:22:23.692Z,41.30
2018-01-08T23:24:51.219Z,41.20
2018-01-08T23:27:18.742Z,41.40
2018-01-08T23:29:47.083Z,41.50
2018-01-08T23:32:14.937Z,41.40
2018-01-08T23:34:42.462Z,41.60
2018-01-08T23:37:10.037Z,41.30
2018-01-08T23:39:37.595Z,40.90
2018-01-08T23:42:05.126Z,40.90
2018-01-08T23:44:32.696Z,41.00
2018-01-08T23:47:00.227Z,41.90
2018-01-08T23:49:27.763Z,42.00
2018-01-08T23:51:55.628Z,41.40
2018-01-08T23:54:23.156Z,42.10
2018-01-08T23:56:51.449Z,41.90
2018-01-08T23:59:19.782Z,41.80
